sensor_id;sensor_type;location;lat;lon;timestamp;P1;P2;P0
60645;PMS5003;46462;32.608;-117.032;2023-08-08T00:00:42;11;11;
60645;PMS5003;46462;32.608;-117.032;2023-08-08T00:03:12;12;11;
60645;PMS5003;46462;32.608;-117.032;2023-08-08T00:05:43;11;11;
60645;PMS5003;46462;32.608;-117.032;2023-08-08T00:08:13;10;10;
60645;PMS5003;46462;32.608;-117.032;2023-08-08T00:10:44;8;8;
60645;PMS5003;46462;32.608;-117.032;2023-08-08T00:13:14;10;10;
60645;PMS5003;46462;32.608;-117.032;2023-08-08T00:15:45;10;9;
60645;PMS5003;46462;32.608;-117.032;2023-08-08T00:18:15;10;9;
60645;PMS5003;46462;32.608;-117.032;2023-08-08T00:20:46;10;10;
60645;PMS5003;46462;32.608;-117.032;2023-08-08T00:23:16;9;9;
60645;PMS5003;46462;32.608;-117.032;2023-08-08T00:25:47;8;7;
60645;PMS5003;46462;32.608;-117.032;2023-08-08T00:28:18;12;11;
60645;PMS5003;46462;32.608;-117.032;2023-08-08T00:30:48;11;11;
60645;PMS5003;46462;32.608;-117.032;2023-08-08T00:33:19;10;10;
60645;PMS5003;46462;32.608;-117.032;2023-08-08T00:35:50;10;10;
60645;PMS5003;46462;32.608;-117.032;2023-08-08T00:38:20;9;8;
60645;PMS5003;46462;32.608;-117.032;2023-08-08T00:40:51;10;9;
60645;PMS5003;46462;32.608;-117.032;2023-08-08T00:43:21;9;8;
60645;PMS5003;46462;32.608;-117.032;2023-08-08T00:45:52;10;9;
60645;PMS5003;46462;32.608;-117.032;2023-08-08T00:48:22;11;10;
60645;PMS5003;46462;32.608;-117.032;2023-08-08T00:50:53;11;11;
60645;PMS5003;46462;32.608;-117.032;2023-08-08T00:53:24;10;10;
60645;PMS5003;46462;32.608;-117.032;2023-08-08T00:55:54;8;7;
60645;PMS5003;46462;32.608;-117.032;2023-08-08T00:58:25;8;8;
60645;PMS5003;46462;32.608;-117.032;2023-08-08T01:00:55;10;9;
60645;PMS5003;46462;32.608;-117.032;2023-08-08T01:03:26;8;8;
60645;PMS5003;46462;32.608;-117.032;2023-08-08T01:05:58;9;9;
60645;PMS5003;46462;32.608;-117.032;2023-08-08T01:08:29;10;9;
60645;PMS5003;46462;32.608;-117.032;2023-08-08T01:10:58;9;9;
60645;PMS5003;46462;32.608;-117.032;2023-08-08T01:13:28;9;9;
60645;PMS5003;46462;32.608;-117.032;2023-08-08T01:15:59;7;7;
60645;PMS5003;46462;32.608;-117.032;2023-08-08T01:18:29;8;8;
60645;PMS5003;46462;32.608;-117.032;2023-08-08T01:21:00;10;9;
60645;PMS5003;46462;32.608;-117.032;2023-08-08T01:23:33;11;10;
60645;PMS5003;46462;32.608;-117.032;2023-08-08T01:26:01;9;9;
60645;PMS5003;46462;32.608;-117.032;2023-08-08T01:28:32;9;9;
60645;PMS5003;46462;32.608;-117.032;2023-08-08T01:31:02;7;7;
60645;PMS5003;46462;32.608;-117.032;2023-08-08T01:33:33;9;9;
60645;PMS5003;46462;32.608;-117.032;2023-08-08T01:36:04;7;7;
60645;PMS5003;46462;32.608;-117.032;2023-08-08T01:38:36;10;10;
60645;PMS5003;46462;32.608;-117.032;2023-08-08T01:41:05;12;9;
60645;PMS5003;46462;32.608;-117.032;2023-08-08T01:43:35;8;8;
60645;PMS5003;46462;32.608;-117.032;2023-08-08T01:46:06;11;8;
60645;PMS5003;46462;32.608;-117.032;2023-08-08T01:48:36;8;8;
60645;PMS5003;46462;32.608;-117.032;2023-08-08T01:51:07;9;9;
60645;PMS5003;46462;32.608;-117.032;2023-08-08T01:53:37;7;7;
60645;PMS5003;46462;32.608;-117.032;2023-08-08T01:56:08;11;10;
60645;PMS5003;46462;32.608;-117.032;2023-08-08T01:58:39;12;10;
60645;PMS5003;46462;32.608;-117.032;2023-08-08T02:01:09;8;8;
60645;PMS5003;46462;32.608;-117.032;2023-08-08T02:03:40;8;8;
60645;PMS5003;46462;32.608;-117.032;2023-08-08T02:06:10;8;8;
60645;PMS5003;46462;32.608;-117.032;2023-08-08T02:08:41;9;9;
60645;PMS5003;46462;32.608;-117.032;2023-08-08T02:11:12;8;8;
60645;PMS5003;46462;32.608;-117.032;2023-08-08T02:13:42;9;9;
60645;PMS5003;46462;32.608;-117.032;2023-08-08T02:16:13;8;8;
60645;PMS5003;46462;32.608;-117.032;2023-08-08T02:18:43;9;8;
60645;PMS5003;46462;32.608;-117.032;2023-08-08T02:21:14;7;7;
60645;PMS5003;46462;32.608;-117.032;2023-08-08T02:23:44;7;7;
60645;PMS5003;46462;32.608;-117.032;2023-08-08T02:26:15;8;8;
60645;PMS5003;46462;32.608;-117.032;2023-08-08T02:28:46;8;8;
60645;PMS5003;46462;32.608;-117.032;2023-08-08T02:31:16;8;8;
60645;PMS5003;46462;32.608;-117.032;2023-08-08T02:33:47;8;8;
60645;PMS5003;46462;32.608;-117.032;2023-08-08T02:36:18;7;7;
60645;PMS5003;46462;32.608;-117.032;2023-08-08T02:38:48;9;9;
60645;PMS5003;46462;32.608;-117.032;2023-08-08T02:41:19;9;9;
60645;PMS5003;46462;32.608;-117.032;2023-08-08T02:43:49;9;9;
60645;PMS5003;46462;32.608;-117.032;2023-08-08T02:46:20;9;9;
60645;PMS5003;46462;32.608;-117.032;2023-08-08T02:48:50;10;10;
60645;PMS5003;46462;32.608;-117.032;2023-08-08T02:51:21;11;10;
60645;PMS5003;46462;32.608;-117.032;2023-08-08T02:53:51;12;10;
60645;PMS5003;46462;32.608;-117.032;2023-08-08T02:56:22;7;7;
60645;PMS5003;46462;32.608;-117.032;2023-08-08T02:58:52;7;7;
60645;PMS5003;46462;32.608;-117.032;2023-08-08T03:01:23;9;8;
60645;PMS5003;46462;32.608;-117.032;2023-08-08T03:03:53;9;9;
60645;PMS5003;46462;32.608;-117.032;2023-08-08T03:06:25;8;8;
60645;PMS5003;46462;32.608;-117.032;2023-08-08T03:08:55;8;7;
60645;PMS5003;46462;32.608;-117.032;2023-08-08T03:11:25;6;6;
60645;PMS5003;46462;32.608;-117.032;2023-08-08T03:13:56;9;9;
60645;PMS5003;46462;32.608;-117.032;2023-08-08T03:16:26;8;8;
60645;PMS5003;46462;32.608;-117.032;2023-08-08T03:18:57;7;7;
60645;PMS5003;46462;32.608;-117.032;2023-08-08T03:21:28;9;7;
60645;PMS5003;46462;32.608;-117.032;2023-08-08T03:23:58;6;6;
60645;PMS5003;46462;32.608;-117.032;2023-08-08T03:26:28;8;7;
60645;PMS5003;46462;32.608;-117.032;2023-08-08T03:28:59;9;8;
60645;PMS5003;46462;32.608;-117.032;2023-08-08T03:31:30;8;8;
60645;PMS5003;46462;32.608;-117.032;2023-08-08T03:34:00;9;9;
60645;PMS5003;46462;32.608;-117.032;2023-08-08T03:36:31;9;9;
60645;PMS5003;46462;32.608;-117.032;2023-08-08T03:39:01;8;7;
60645;PMS5003;46462;32.608;-117.032;2023-08-08T03:41:32;8;7;
60645;PMS5003;46462;32.608;-117.032;2023-08-08T03:44:02;10;10;
60645;PMS5003;46462;32.608;-117.032;2023-08-08T03:46:33;9;9;
60645;PMS5003;46462;32.608;-117.032;2023-08-08T03:49:04;6;6;
60645;PMS5003;46462;32.608;-117.032;2023-08-08T03:51:34;8;8;
60645;PMS5003;46462;32.608;-117.032;2023-08-08T03:54:04;8;8;
60645;PMS5003;46462;32.608;-117.032;2023-08-08T03:56:35;8;8;
60645;PMS5003;46462;32.608;-117.032;2023-08-08T03:59:05;9;9;
60645;PMS5003;46462;32.608;-117.032;2023-08-08T04:01:36;8;8;
60645;PMS5003;46462;32.608;-117.032;2023-08-08T04:04:06;10;10;
60645;PMS5003;46462;32.608;-117.032;2023-08-08T04:06:37;9;8;
60645;PMS5003;46462;32.608;-117.032;2023-08-08T04:09:07;10;10;
60645;PMS5003;46462;32.608;-117.032;2023-08-08T04:11:38;8;8;
60645;PMS5003;46462;32.608;-117.032;2023-08-08T04:14:09;7;7;
60645;PMS5003;46462;32.608;-117.032;2023-08-08T04:16:39;7;7;
60645;PMS5003;46462;32.608;-117.032;2023-08-08T04:19:10;10;10;
60645;PMS5003;46462;32.608;-117.032;2023-08-08T04:21:40;10;10;
60645;PMS5003;46462;32.608;-117.032;2023-08-08T04:24:11;8;6;
60645;PMS5003;46462;32.608;-117.032;2023-08-08T04:26:42;11;11;
60645;PMS5003;46462;32.608;-117.032;2023-08-08T04:29:12;9;9;
60645;PMS5003;46462;32.608;-117.032;2023-08-08T04:31:43;8;8;
60645;PMS5003;46462;32.608;-117.032;2023-08-08T04:34:13;9;8;
60645;PMS5003;46462;32.608;-117.032;2023-08-08T04:36:44;9;9;
60645;PMS5003;46462;32.608;-117.032;2023-08-08T04:39:15;9;8;
60645;PMS5003;46462;32.608;-117.032;2023-08-08T04:41:45;8;8;
60645;PMS5003;46462;32.608;-117.032;2023-08-08T04:44:16;11;11;
60645;PMS5003;46462;32.608;-117.032;2023-08-08T04:46:46;9;8;
60645;PMS5003;46462;32.608;-117.032;2023-08-08T04:49:17;8;7;
60645;PMS5003;46462;32.608;-117.032;2023-08-08T04:51:47;8;8;
60645;PMS5003;46462;32.608;-117.032;2023-08-08T04:54:18;9;9;
60645;PMS5003;46462;32.608;-117.032;2023-08-08T04:56:49;10;9;
60645;PMS5003;46462;32.608;-117.032;2023-08-08T04:59:19;8;8;
60645;PMS5003;46462;32.608;-117.032;2023-08-08T05:01:49;9;7;
60645;PMS5003;46462;32.608;-117.032;2023-08-08T05:04:20;8;8;
60645;PMS5003;46462;32.608;-117.032;2023-08-08T05:06:51;8;8;
60645;PMS5003;46462;32.608;-117.032;2023-08-08T05:09:21;9;9;
60645;PMS5003;46462;32.608;-117.032;2023-08-08T05:11:52;8;8;
60645;PMS5003;46462;32.608;-117.032;2023-08-08T05:14:22;9;8;
60645;PMS5003;46462;32.608;-117.032;2023-08-08T05:16:53;9;8;
60645;PMS5003;46462;32.608;-117.032;2023-08-08T05:19:24;10;9;
60645;PMS5003;46462;32.608;-117.032;2023-08-08T05:21:54;10;9;
60645;PMS5003;46462;32.608;-117.032;2023-08-08T05:24:25;7;7;
60645;PMS5003;46462;32.608;-117.032;2023-08-08T05:26:55;9;9;
60645;PMS5003;46462;32.608;-117.032;2023-08-08T05:29:26;8;8;
60645;PMS5003;46462;32.608;-117.032;2023-08-08T05:31:56;8;7;
60645;PMS5003;46462;32.608;-117.032;2023-08-08T05:34:27;7;7;
60645;PMS5003;46462;32.608;-117.032;2023-08-08T05:36:58;8;8;
60645;PMS5003;46462;32.608;-117.032;2023-08-08T05:39:29;8;8;
60645;PMS5003;46462;32.608;-117.032;2023-08-08T05:41:59;6;6;
60645;PMS5003;46462;32.608;-117.032;2023-08-08T05:44:29;9;9;
60645;PMS5003;46462;32.608;-117.032;2023-08-08T05:47:00;6;6;
60645;PMS5003;46462;32.608;-117.032;2023-08-08T05:49:30;6;6;
60645;PMS5003;46462;32.608;-117.032;2023-08-08T05:52:01;5;5;
60645;PMS5003;46462;32.608;-117.032;2023-08-08T05:54:31;5;5;
60645;PMS5003;46462;32.608;-117.032;2023-08-08T05:57:02;8;8;
60645;PMS5003;46462;32.608;-117.032;2023-08-08T05:59:33;9;8;
60645;PMS5003;46462;32.608;-117.032;2023-08-08T06:02:03;8;8;
60645;PMS5003;46462;32.608;-117.032;2023-08-08T06:04:34;8;7;
60645;PMS5003;46462;32.608;-117.032;2023-08-08T06:07:05;9;8;
60645;PMS5003;46462;32.608;-117.032;2023-08-08T06:09:35;8;8;
60645;PMS5003;46462;32.608;-117.032;2023-08-08T06:12:06;8;7;
60645;PMS5003;46462;32.608;-117.032;2023-08-08T06:14:36;7;7;
60645;PMS5003;46462;32.608;-117.032;2023-08-08T06:17:07;8;8;
60645;PMS5003;46462;32.608;-117.032;2023-08-08T06:19:37;8;7;
60645;PMS5003;46462;32.608;-117.032;2023-08-08T06:22:08;6;6;
60645;PMS5003;46462;32.608;-117.032;2023-08-08T06:24:38;8;8;
60645;PMS5003;46462;32.608;-117.032;2023-08-08T06:27:09;8;8;
60645;PMS5003;46462;32.608;-117.032;2023-08-08T06:29:39;9;9;
60645;PMS5003;46462;32.608;-117.032;2023-08-08T06:32:10;8;8;
60645;PMS5003;46462;32.608;-117.032;2023-08-08T06:34:41;8;7;
60645;PMS5003;46462;32.608;-117.032;2023-08-08T06:37:11;8;8;
60645;PMS5003;46462;32.608;-117.032;2023-08-08T06:39:42;8;8;
60645;PMS5003;46462;32.608;-117.032;2023-08-08T06:42:12;7;7;
60645;PMS5003;46462;32.608;-117.032;2023-08-08T06:44:43;7;7;
60645;PMS5003;46462;32.608;-117.032;2023-08-08T06:47:14;7;6;
60645;PMS5003;46462;32.608;-117.032;2023-08-08T06:49:44;9;8;
60645;PMS5003;46462;32.608;-117.032;2023-08-08T06:52:15;8;8;
60645;PMS5003;46462;32.608;-117.032;2023-08-08T06:54:45;8;8;
60645;PMS5003;46462;32.608;-117.032;2023-08-08T06:57:16;9;9;
60645;PMS5003;46462;32.608;-117.032;2023-08-08T06:59:46;9;9;
60645;PMS5003;46462;32.608;-117.032;2023-08-08T07:02:17;8;8;
60645;PMS5003;46462;32.608;-117.032;2023-08-08T07:04:47;8;8;
60645;PMS5003;46462;32.608;-117.032;2023-08-08T07:07:18;8;7;
60645;PMS5003;46462;32.608;-117.032;2023-08-08T07:09:49;8;8;
60645;PMS5003;46462;32.608;-117.032;2023-08-08T07:12:19;7;7;
60645;PMS5003;46462;32.608;-117.032;2023-08-08T07:14:50;11;9;
60645;PMS5003;46462;32.608;-117.032;2023-08-08T07:17:20;8;8;
60645;PMS5003;46462;32.608;-117.032;2023-08-08T07:19:51;8;8;
60645;PMS5003;46462;32.608;-117.032;2023-08-08T07:22:22;9;8;
60645;PMS5003;46462;32.608;-117.032;2023-08-08T07:24:52;6;6;
60645;PMS5003;46462;32.608;-117.032;2023-08-08T07:27:23;7;7;
60645;PMS5003;46462;32.608;-117.032;2023-08-08T07:29:53;7;7;
60645;PMS5003;46462;32.608;-117.032;2023-08-08T07:32:24;6;5;
60645;PMS5003;46462;32.608;-117.032;2023-08-08T07:34:55;7;7;
60645;PMS5003;46462;32.608;-117.032;2023-08-08T07:37:25;7;7;
60645;PMS5003;46462;32.608;-117.032;2023-08-08T07:39:56;8;8;
60645;PMS5003;46462;32.608;-117.032;2023-08-08T07:42:26;8;7;
60645;PMS5003;46462;32.608;-117.032;2023-08-08T07:44:57;8;8;
60645;PMS5003;46462;32.608;-117.032;2023-08-08T07:47:27;5;5;
60645;PMS5003;46462;32.608;-117.032;2023-08-08T07:49:58;7;7;
60645;PMS5003;46462;32.608;-117.032;2023-08-08T07:52:29;7;7;
60645;PMS5003;46462;32.608;-117.032;2023-08-08T07:54:59;9;9;
60645;PMS5003;46462;32.608;-117.032;2023-08-08T07:57:29;6;6;
60645;PMS5003;46462;32.608;-117.032;2023-08-08T08:00:00;8;8;
60645;PMS5003;46462;32.608;-117.032;2023-08-08T08:02:31;7;6;
60645;PMS5003;46462;32.608;-117.032;2023-08-08T08:05:01;9;8;
60645;PMS5003;46462;32.608;-117.032;2023-08-08T08:07:32;9;8;
60645;PMS5003;46462;32.608;-117.032;2023-08-08T08:10:06;8;8;
60645;PMS5003;46462;32.608;-117.032;2023-08-08T08:12:36;8;8;
60645;PMS5003;46462;32.608;-117.032;2023-08-08T08:15:07;8;8;
60645;PMS5003;46462;32.608;-117.032;2023-08-08T08:17:36;8;8;
60645;PMS5003;46462;32.608;-117.032;2023-08-08T08:20:07;8;8;
60645;PMS5003;46462;32.608;-117.032;2023-08-08T08:22:37;10;9;
60645;PMS5003;46462;32.608;-117.032;2023-08-08T08:25:08;6;6;
60645;PMS5003;46462;32.608;-117.032;2023-08-08T08:27:38;7;7;
60645;PMS5003;46462;32.608;-117.032;2023-08-08T08:30:09;8;7;
60645;PMS5003;46462;32.608;-117.032;2023-08-08T08:32:40;7;7;
60645;PMS5003;46462;32.608;-117.032;2023-08-08T08:35:10;8;8;
60645;PMS5003;46462;32.608;-117.032;2023-08-08T08:37:41;9;8;
60645;PMS5003;46462;32.608;-117.032;2023-08-08T08:40:11;7;7;
60645;PMS5003;46462;32.608;-117.032;2023-08-08T08:42:42;8;8;
60645;PMS5003;46462;32.608;-117.032;2023-08-08T08:45:13;7;7;
60645;PMS5003;46462;32.608;-117.032;2023-08-08T08:47:43;7;7;
60645;PMS5003;46462;32.608;-117.032;2023-08-08T08:50:14;6;6;
60645;PMS5003;46462;32.608;-117.032;2023-08-08T08:52:44;7;6;
60645;PMS5003;46462;32.608;-117.032;2023-08-08T08:55:15;5;5;
60645;PMS5003;46462;32.608;-117.032;2023-08-08T08:57:45;10;9;
60645;PMS5003;46462;32.608;-117.032;2023-08-08T09:00:16;9;9;
60645;PMS5003;46462;32.608;-117.032;2023-08-08T09:02:46;9;9;
60645;PMS5003;46462;32.608;-117.032;2023-08-08T09:05:17;11;10;
60645;PMS5003;46462;32.608;-117.032;2023-08-08T09:07:48;6;6;
60645;PMS5003;46462;32.608;-117.032;2023-08-08T09:10:19;8;7;
60645;PMS5003;46462;32.608;-117.032;2023-08-08T09:12:49;9;9;
60645;PMS5003;46462;32.608;-117.032;2023-08-08T09:15:19;8;8;
60645;PMS5003;46462;32.608;-117.032;2023-08-08T09:17:50;8;8;
60645;PMS5003;46462;32.608;-117.032;2023-08-08T09:20:21;6;6;
60645;PMS5003;46462;32.608;-117.032;2023-08-08T09:22:51;8;8;
60645;PMS5003;46462;32.608;-117.032;2023-08-08T09:25:22;6;6;
60645;PMS5003;46462;32.608;-117.032;2023-08-08T09:27:52;9;9;
60645;PMS5003;46462;32.608;-117.032;2023-08-08T09:30:23;7;7;
60645;PMS5003;46462;32.608;-117.032;2023-08-08T09:32:54;7;7;
60645;PMS5003;46462;32.608;-117.032;2023-08-08T09:35:24;8;8;
60645;PMS5003;46462;32.608;-117.032;2023-08-08T09:37:55;7;7;
60645;PMS5003;46462;32.608;-117.032;2023-08-08T09:40:25;6;6;
60645;PMS5003;46462;32.608;-117.032;2023-08-08T09:42:56;8;8;
60645;PMS5003;46462;32.608;-117.032;2023-08-08T09:45:27;6;6;
60645;PMS5003;46462;32.608;-117.032;2023-08-08T09:47:58;7;7;
60645;PMS5003;46462;32.608;-117.032;2023-08-08T09:50:28;7;7;
60645;PMS5003;46462;32.608;-117.032;2023-08-08T09:52:58;6;6;
60645;PMS5003;46462;32.608;-117.032;2023-08-08T09:55:29;7;6;
60645;PMS5003;46462;32.608;-117.032;2023-08-08T09:57:59;10;10;
60645;PMS5003;46462;32.608;-117.032;2023-08-08T10:00:30;5;5;
60645;PMS5003;46462;32.608;-117.032;2023-08-08T10:03:00;8;8;
60645;PMS5003;46462;32.608;-117.032;2023-08-08T10:05:31;9;8;
60645;PMS5003;46462;32.608;-117.032;2023-08-08T10:08:02;7;7;
60645;PMS5003;46462;32.608;-117.032;2023-08-08T10:10:32;7;6;
60645;PMS5003;46462;32.608;-117.032;2023-08-08T10:13:03;8;7;
60645;PMS5003;46462;32.608;-117.032;2023-08-08T10:15:36;9;8;
60645;PMS5003;46462;32.608;-117.032;2023-08-08T10:18:04;7;6;
60645;PMS5003;46462;32.608;-117.032;2023-08-08T10:20:35;8;8;
60645;PMS5003;46462;32.608;-117.032;2023-08-08T10:23:06;9;9;
60645;PMS5003;46462;32.608;-117.032;2023-08-08T10:25:36;8;7;
60645;PMS5003;46462;32.608;-117.032;2023-08-08T10:28:08;8;6;
60645;PMS5003;46462;32.608;-117.032;2023-08-08T10:33:14;9;8;
60645;PMS5003;46462;32.608;-117.032;2023-08-08T10:35:38;7;7;
60645;PMS5003;46462;32.608;-117.032;2023-08-08T10:38:09;7;7;
60645;PMS5003;46462;32.608;-117.032;2023-08-08T10:40:42;7;7;
60645;PMS5003;46462;32.608;-117.032;2023-08-08T10:43:11;11;10;
60645;PMS5003;46462;32.608;-117.032;2023-08-08T10:45:41;8;7;
60645;PMS5003;46462;32.608;-117.032;2023-08-08T10:48:11;8;8;
60645;PMS5003;46462;32.608;-117.032;2023-08-08T10:50:42;7;7;
60645;PMS5003;46462;32.608;-117.032;2023-08-08T10:53:12;7;7;
60645;PMS5003;46462;32.608;-117.032;2023-08-08T10:55:43;6;6;
60645;PMS5003;46462;32.608;-117.032;2023-08-08T10:58:14;8;7;
60645;PMS5003;46462;32.608;-117.032;2023-08-08T11:00:44;8;8;
60645;PMS5003;46462;32.608;-117.032;2023-08-08T11:03:15;8;7;
60645;PMS5003;46462;32.608;-117.032;2023-08-08T11:05:45;8;8;
60645;PMS5003;46462;32.608;-117.032;2023-08-08T11:08:16;6;6;
60645;PMS5003;46462;32.608;-117.032;2023-08-08T11:10:50;8;8;
60645;PMS5003;46462;32.608;-117.032;2023-08-08T11:13:17;8;7;
60645;PMS5003;46462;32.608;-117.032;2023-08-08T11:15:48;8;8;
60645;PMS5003;46462;32.608;-117.032;2023-08-08T11:18:18;6;6;
60645;PMS5003;46462;32.608;-117.032;2023-08-08T11:20:49;8;8;
60645;PMS5003;46462;32.608;-117.032;2023-08-08T11:23:20;10;10;
60645;PMS5003;46462;32.608;-117.032;2023-08-08T11:25:50;10;10;
60645;PMS5003;46462;32.608;-117.032;2023-08-08T11:28:21;8;8;
60645;PMS5003;46462;32.608;-117.032;2023-08-08T11:30:51;6;6;
60645;PMS5003;46462;32.608;-117.032;2023-08-08T11:33:22;7;7;
60645;PMS5003;46462;32.608;-117.032;2023-08-08T11:35:53;7;7;
60645;PMS5003;46462;32.608;-117.032;2023-08-08T11:38:23;7;7;
60645;PMS5003;46462;32.608;-117.032;2023-08-08T11:40:54;7;6;
60645;PMS5003;46462;32.608;-117.032;2023-08-08T11:43:24;6;6;
60645;PMS5003;46462;32.608;-117.032;2023-08-08T11:45:55;7;7;
60645;PMS5003;46462;32.608;-117.032;2023-08-08T11:48:26;7;7;
60645;PMS5003;46462;32.608;-117.032;2023-08-08T11:50:56;7;7;
60645;PMS5003;46462;32.608;-117.032;2023-08-08T11:53:26;6;6;
60645;PMS5003;46462;32.608;-117.032;2023-08-08T11:55:57;7;7;
60645;PMS5003;46462;32.608;-117.032;2023-08-08T11:58:27;6;6;
60645;PMS5003;46462;32.608;-117.032;2023-08-08T12:00:58;7;7;
60645;PMS5003;46462;32.608;-117.032;2023-08-08T12:03:29;7;7;
60645;PMS5003;46462;32.608;-117.032;2023-08-08T12:05:59;7;7;
60645;PMS5003;46462;32.608;-117.032;2023-08-08T12:08:29;7;7;
60645;PMS5003;46462;32.608;-117.032;2023-08-08T12:11:00;8;7;
60645;PMS5003;46462;32.608;-117.032;2023-08-08T12:13:31;8;8;
60645;PMS5003;46462;32.608;-117.032;2023-08-08T12:16:01;7;6;
60645;PMS5003;46462;32.608;-117.032;2023-08-08T12:18:32;9;9;
60645;PMS5003;46462;32.608;-117.032;2023-08-08T12:21:02;10;8;
60645;PMS5003;46462;32.608;-117.032;2023-08-08T12:23:33;7;6;
60645;PMS5003;46462;32.608;-117.032;2023-08-08T12:26:04;6;6;
60645;PMS5003;46462;32.608;-117.032;2023-08-08T12:28:34;8;8;
60645;PMS5003;46462;32.608;-117.032;2023-08-08T12:31:04;7;6;
60645;PMS5003;46462;32.608;-117.032;2023-08-08T12:33:35;8;8;
60645;PMS5003;46462;32.608;-117.032;2023-08-08T12:36:06;8;8;
60645;PMS5003;46462;32.608;-117.032;2023-08-08T12:38:36;7;6;
60645;PMS5003;46462;32.608;-117.032;2023-08-08T12:41:07;8;8;
60645;PMS5003;46462;32.608;-117.032;2023-08-08T12:43:37;7;7;
60645;PMS5003;46462;32.608;-117.032;2023-08-08T12:46:08;6;6;
60645;PMS5003;46462;32.608;-117.032;2023-08-08T12:48:38;6;6;
60645;PMS5003;46462;32.608;-117.032;2023-08-08T12:51:09;7;7;
60645;PMS5003;46462;32.608;-117.032;2023-08-08T12:53:40;7;7;
60645;PMS5003;46462;32.608;-117.032;2023-08-08T12:56:10;7;6;
60645;PMS5003;46462;32.608;-117.032;2023-08-08T12:58:41;7;7;
60645;PMS5003;46462;32.608;-117.032;2023-08-08T13:01:12;9;8;
60645;PMS5003;46462;32.608;-117.032;2023-08-08T13:03:42;8;7;
60645;PMS5003;46462;32.608;-117.032;2023-08-08T13:06:13;8;7;
60645;PMS5003;46462;32.608;-117.032;2023-08-08T13:08:43;7;7;
60645;PMS5003;46462;32.608;-117.032;2023-08-08T13:11:14;8;8;
60645;PMS5003;46462;32.608;-117.032;2023-08-08T13:13:44;8;8;
60645;PMS5003;46462;32.608;-117.032;2023-08-08T13:16:15;8;8;
60645;PMS5003;46462;32.608;-117.032;2023-08-08T13:18:45;7;6;
60645;PMS5003;46462;32.608;-117.032;2023-08-08T13:21:16;7;7;
60645;PMS5003;46462;32.608;-117.032;2023-08-08T13:23:47;8;8;
60645;PMS5003;46462;32.608;-117.032;2023-08-08T13:26:17;9;9;
60645;PMS5003;46462;32.608;-117.032;2023-08-08T13:28:48;10;10;
60645;PMS5003;46462;32.608;-117.032;2023-08-08T13:31:18;8;8;
60645;PMS5003;46462;32.608;-117.032;2023-08-08T13:33:49;7;7;
60645;PMS5003;46462;32.608;-117.032;2023-08-08T13:36:20;9;9;
60645;PMS5003;46462;32.608;-117.032;2023-08-08T13:38:50;8;8;
60645;PMS5003;46462;32.608;-117.032;2023-08-08T13:41:21;8;8;
60645;PMS5003;46462;32.608;-117.032;2023-08-08T13:43:52;9;8;
60645;PMS5003;46462;32.608;-117.032;2023-08-08T13:46:22;6;6;
60645;PMS5003;46462;32.608;-117.032;2023-08-08T13:48:53;6;6;
60645;PMS5003;46462;32.608;-117.032;2023-08-08T13:51:24;8;8;
60645;PMS5003;46462;32.608;-117.032;2023-08-08T13:53:54;8;8;
60645;PMS5003;46462;32.608;-117.032;2023-08-08T13:56:25;8;8;
60645;PMS5003;46462;32.608;-117.032;2023-08-08T13:58:55;9;9;
60645;PMS5003;46462;32.608;-117.032;2023-08-08T14:01:26;8;7;
60645;PMS5003;46462;32.608;-117.032;2023-08-08T14:03:57;11;11;
60645;PMS5003;46462;32.608;-117.032;2023-08-08T14:06:27;15;14;
60645;PMS5003;46462;32.608;-117.032;2023-08-08T14:08:58;15;14;
60645;PMS5003;46462;32.608;-117.032;2023-08-08T14:11:28;13;13;
60645;PMS5003;46462;32.608;-117.032;2023-08-08T14:13:59;16;16;
60645;PMS5003;46462;32.608;-117.032;2023-08-08T14:16:30;20;18;
60645;PMS5003;46462;32.608;-117.032;2023-08-08T14:19:00;17;16;
60645;PMS5003;46462;32.608;-117.032;2023-08-08T14:21:31;19;19;
60645;PMS5003;46462;32.608;-117.032;2023-08-08T14:24:01;20;20;
60645;PMS5003;46462;32.608;-117.032;2023-08-08T14:26:32;18;17;
60645;PMS5003;46462;32.608;-117.032;2023-08-08T14:29:02;17;17;
60645;PMS5003;46462;32.608;-117.032;2023-08-08T14:31:33;19;19;
60645;PMS5003;46462;32.608;-117.032;2023-08-08T14:34:04;19;19;
60645;PMS5003;46462;32.608;-117.032;2023-08-08T14:36:34;17;16;
60645;PMS5003;46462;32.608;-117.032;2023-08-08T14:39:05;20;18;
60645;PMS5003;46462;32.608;-117.032;2023-08-08T14:41:35;17;17;
60645;PMS5003;46462;32.608;-117.032;2023-08-08T14:44:06;20;19;
60645;PMS5003;46462;32.608;-117.032;2023-08-08T14:46:36;19;19;
60645;PMS5003;46462;32.608;-117.032;2023-08-08T14:49:07;18;18;
60645;PMS5003;46462;32.608;-117.032;2023-08-08T14:51:37;19;19;
60645;PMS5003;46462;32.608;-117.032;2023-08-08T14:54:08;21;21;
60645;PMS5003;46462;32.608;-117.032;2023-08-08T14:56:38;20;19;
60645;PMS5003;46462;32.608;-117.032;2023-08-08T14:59:09;18;18;
60645;PMS5003;46462;32.608;-117.032;2023-08-08T15:01:39;19;19;
60645;PMS5003;46462;32.608;-117.032;2023-08-08T15:04:10;20;20;
60645;PMS5003;46462;32.608;-117.032;2023-08-08T15:06:41;17;17;
60645;PMS5003;46462;32.608;-117.032;2023-08-08T15:09:11;16;16;
60645;PMS5003;46462;32.608;-117.032;2023-08-08T15:11:41;17;17;
60645;PMS5003;46462;32.608;-117.032;2023-08-08T15:14:11;19;18;
60645;PMS5003;46462;32.608;-117.032;2023-08-08T15:16:47;19;19;
60645;PMS5003;46462;32.608;-117.032;2023-08-08T15:19:12;18;17;
60645;PMS5003;46462;32.608;-117.032;2023-08-08T15:21:43;20;20;
60645;PMS5003;46462;32.608;-117.032;2023-08-08T15:24:13;23;19;
60645;PMS5003;46462;32.608;-117.032;2023-08-08T15:26:43;18;18;
60645;PMS5003;46462;32.608;-117.032;2023-08-08T15:29:14;16;16;
60645;PMS5003;46462;32.608;-117.032;2023-08-08T15:31:45;22;21;
60645;PMS5003;46462;32.608;-117.032;2023-08-08T15:34:15;17;16;
60645;PMS5003;46462;32.608;-117.032;2023-08-08T15:36:46;21;21;
60645;PMS5003;46462;32.608;-117.032;2023-08-08T15:39:16;18;18;
60645;PMS5003;46462;32.608;-117.032;2023-08-08T15:41:47;18;18;
60645;PMS5003;46462;32.608;-117.032;2023-08-08T15:44:17;18;18;
60645;PMS5003;46462;32.608;-117.032;2023-08-08T15:46:48;18;17;
60645;PMS5003;46462;32.608;-117.032;2023-08-08T15:49:18;20;20;
60645;PMS5003;46462;32.608;-117.032;2023-08-08T15:51:49;20;19;
60645;PMS5003;46462;32.608;-117.032;2023-08-08T15:54:20;24;23;
60645;PMS5003;46462;32.608;-117.032;2023-08-08T15:56:50;19;19;
60645;PMS5003;46462;32.608;-117.032;2023-08-08T15:59:21;18;18;
60645;PMS5003;46462;32.608;-117.032;2023-08-08T16:01:51;20;20;
60645;PMS5003;46462;32.608;-117.032;2023-08-08T16:04:21;21;19;
60645;PMS5003;46462;32.608;-117.032;2023-08-08T16:06:52;21;20;
60645;PMS5003;46462;32.608;-117.032;2023-08-08T16:09:23;21;20;
60645;PMS5003;46462;32.608;-117.032;2023-08-08T16:11:53;19;19;
60645;PMS5003;46462;32.608;-117.032;2023-08-08T16:14:23;24;22;
60645;PMS5003;46462;32.608;-117.032;2023-08-08T16:16:54;27;24;